sensor_id;sensor_type;location;lat;lon;timestamp;P1;durP1;ratioP1;P2;durP2;ratioP2
75016;SDS011;63577;39.766;2.720;2023-11-21T00:02:24;7.30;;;4.60;;
75016;SDS011;63577;39.766;2.720;2023-11-21T00:04:50;7.40;;;5.40;;
75016;SDS011;63577;39.766;2.720;2023-11-21T00:07:16;8.70;;;4.70;;
75016;SDS011;63577;39.766;2.720;2023-11-21T00:09:41;8.30;;;5.00;;
75016;SDS011;63577;39.766;2.720;2023-11-21T00:12:10;7.80;;;5.20;;
75016;SDS011;63577;39.766;2.720;2023-11-21T00:14:38;6.60;;;4.60;;
75016;SDS011;63577;39.766;2.720;2023-11-21T00:17:04;6.00;;;4.30;;
75016;SDS011;63577;39.766;2.720;2023-11-21T00:19:30;8.30;;;3.80;;
75016;SDS011;63577;39.766;2.720;2023-11-21T00:21:55;6.30;;;4.30;;
75016;SDS011;63577;39.766;2.720;2023-11-21T00:24:23;6.40;;;3.60;;
75016;SDS011;63577;39.766;2.720;2023-11-21T00:26:50;7.40;;;3.70;;
75016;SDS011;63577;39.766;2.720;2023-11-21T00:29:15;5.50;;;3.80;;
75016;SDS011;63577;39.766;2.720;2023-11-21T00:31:43;5.70;;;3.40;;
75016;SDS011;63577;39.766;2.720;2023-11-21T00:34:08;6.00;;;3.60;;
75016;SDS011;63577;39.766;2.720;2023-11-21T00:36:33;6.80;;;3.50;;
75016;SDS011;63577;39.766;2.720;2023-11-21T00:38:59;7.00;;;4.10;;
75016;SDS011;63577;39.766;2.720;2023-11-21T00:41:24;7.90;;;4.50;;
75016;SDS011;63577;39.766;2.720;2023-11-21T00:43:53;5.90;;;3.60;;
75016;SDS011;63577;39.766;2.720;2023-11-21T00:46:19;7.40;;;3.80;;
75016;SDS011;63577;39.766;2.720;2023-11-21T00:48:44;9.40;;;4.90;;
75016;SDS011;63577;39.766;2.720;2023-11-21T00:51:09;6.90;;;4.10;;
75016;SDS011;63577;39.766;2.720;2023-11-21T00:53:35;7.80;;;4.70;;
75016;SDS011;63577;39.766;2.720;2023-11-21T00:56:00;7.50;;;4.90;;
75016;SDS011;63577;39.766;2.720;2023-11-21T00:58:26;8.70;;;5.60;;
75016;SDS011;63577;39.766;2.720;2023-11-21T01:00:51;8.60;;;6.00;;
75016;SDS011;63577;39.766;2.720;2023-11-21T01:03:18;10.40;;;6.10;;
75016;SDS011;63577;39.766;2.720;2023-11-21T01:05:43;10.30;;;5.90;;
75016;SDS011;63577;39.766;2.720;2023-11-21T01:08:09;9.00;;;6.30;;
75016;SDS011;63577;39.766;2.720;2023-11-21T01:10:34;8.90;;;5.90;;
75016;SDS011;63577;39.766;2.720;2023-11-21T01:13:00;9.70;;;5.90;;
75016;SDS011;63577;39.766;2.720;2023-11-21T01:15:26;10.90;;;6.70;;
75016;SDS011;63577;39.766;2.720;2023-11-21T01:17:51;10.30;;;6.70;;
75016;SDS011;63577;39.766;2.720;2023-11-21T01:20:17;9.10;;;5.30;;
75016;SDS011;63577;39.766;2.720;2023-11-21T01:22:42;10.40;;;5.40;;
75016;SDS011;63577;39.766;2.720;2023-11-21T01:25:08;9.50;;;4.90;;
75016;SDS011;63577;39.766;2.720;2023-11-21T01:27:34;8.20;;;4.80;;
75016;SDS011;63577;39.766;2.720;2023-11-21T01:30:00;6.50;;;4.80;;
75016;SDS011;63577;39.766;2.720;2023-11-21T01:32:25;9.10;;;5.50;;
75016;SDS011;63577;39.766;2.720;2023-11-21T01:34:51;12.40;;;6.00;;
75016;SDS011;63577;39.766;2.720;2023-11-21T01:37:16;9.50;;;6.00;;
75016;SDS011;63577;39.766;2.720;2023-11-21T01:39:43;9.80;;;6.30;;
75016;SDS011;63577;39.766;2.720;2023-11-21T01:42:10;9.40;;;6.10;;
75016;SDS011;63577;39.766;2.720;2023-11-21T01:44:36;10.30;;;5.40;;
75016;SDS011;63577;39.766;2.720;2023-11-21T01:47:01;12.50;;;6.80;;
75016;SDS011;63577;39.766;2.720;2023-11-21T01:49:30;10.90;;;6.40;;
75016;SDS011;63577;39.766;2.720;2023-11-21T01:51:55;9.40;;;5.90;;
75016;SDS011;63577;39.766;2.720;2023-11-21T01:54:21;9.30;;;5.80;;
75016;SDS011;63577;39.766;2.720;2023-11-21T01:56:47;10.90;;;7.00;;
75016;SDS011;63577;39.766;2.720;2023-11-21T01:59:14;12.90;;;7.50;;
75016;SDS011;63577;39.766;2.720;2023-11-21T02:01:41;11.80;;;7.20;;
75016;SDS011;63577;39.766;2.720;2023-11-21T02:04:06;11.70;;;7.10;;
75016;SDS011;63577;39.766;2.720;2023-11-21T02:06:33;10.50;;;7.20;;
75016;SDS011;63577;39.766;2.720;2023-11-21T02:08:59;11.30;;;6.70;;
75016;SDS011;63577;39.766;2.720;2023-11-21T02:11:25;9.90;;;6.30;;
75016;SDS011;63577;39.766;2.720;2023-11-21T02:13:51;9.00;;;5.90;;
75016;SDS011;63577;39.766;2.720;2023-11-21T02:16:19;10.80;;;6.20;;
75016;SDS011;63577;39.766;2.720;2023-11-21T02:18:46;9.70;;;5.70;;
75016;SDS011;63577;39.766;2.720;2023-11-21T02:21:13;12.90;;;7.30;;
75016;SDS011;63577;39.766;2.720;2023-11-21T02:23:39;12.00;;;7.70;;
75016;SDS011;63577;39.766;2.720;2023-11-21T02:26:07;11.40;;;8.00;;
75016;SDS011;63577;39.766;2.720;2023-11-21T02:28:35;11.50;;;8.00;;
75016;SDS011;63577;39.766;2.720;2023-11-21T02:31:00;13.20;;;8.30;;
75016;SDS011;63577;39.766;2.720;2023-11-21T02:33:28;13.40;;;8.00;;
75016;SDS011;63577;39.766;2.720;2023-11-21T02:35:53;12.60;;;7.90;;
75016;SDS011;63577;39.766;2.720;2023-11-21T02:38:20;11.80;;;7.90;;
75016;SDS011;63577;39.766;2.720;2023-11-21T02:40:46;10.40;;;7.00;;
75016;SDS011;63577;39.766;2.720;2023-11-21T02:43:11;10.70;;;7.10;;
75016;SDS011;63577;39.766;2.720;2023-11-21T02:45:36;10.20;;;7.00;;
75016;SDS011;63577;39.766;2.720;2023-11-21T02:48:02;12.30;;;7.20;;
75016;SDS011;63577;39.766;2.720;2023-11-21T02:50:27;10.00;;;7.00;;
75016;SDS011;63577;39.766;2.720;2023-11-21T02:52:53;11.40;;;7.40;;
75016;SDS011;63577;39.766;2.720;2023-11-21T02:55:18;11.30;;;8.30;;
75016;SDS011;63577;39.766;2.720;2023-11-21T02:57:44;10.80;;;6.90;;
75016;SDS011;63577;39.766;2.720;2023-11-21T03:00:09;14.40;;;10.00;;
75016;SDS011;63577;39.766;2.720;2023-11-21T03:02:38;11.50;;;7.30;;
75016;SDS011;63577;39.766;2.720;2023-11-21T03:05:04;10.00;;;6.70;;
75016;SDS011;63577;39.766;2.720;2023-11-21T03:07:30;10.50;;;7.60;;
75016;SDS011;63577;39.766;2.720;2023-11-21T03:09:55;10.10;;;7.40;;
75016;SDS011;63577;39.766;2.720;2023-11-21T03:12:20;12.40;;;7.20;;
75016;SDS011;63577;39.766;2.720;2023-11-21T03:14:46;15.80;;;10.80;;
75016;SDS011;63577;39.766;2.720;2023-11-21T03:17:11;12.30;;;7.90;;
75016;SDS011;63577;39.766;2.720;2023-11-21T03:19:36;15.10;;;11.00;;
75016;SDS011;63577;39.766;2.720;2023-11-21T03:22:02;11.80;;;7.80;;
75016;SDS011;63577;39.766;2.720;2023-11-21T03:24:29;38.20;;;21.00;;
75016;SDS011;63577;39.766;2.720;2023-11-21T03:26:54;30.70;;;16.40;;
75016;SDS011;63577;39.766;2.720;2023-11-21T03:29:19;31.10;;;17.10;;
75016;SDS011;63577;39.766;2.720;2023-11-21T03:31:45;19.70;;;10.80;;
75016;SDS011;63577;39.766;2.720;2023-11-21T03:34:14;12.10;;;8.60;;
75016;SDS011;63577;39.766;2.720;2023-11-21T03:36:40;11.30;;;7.70;;
75016;SDS011;63577;39.766;2.720;2023-11-21T03:39:05;9.60;;;7.00;;
75016;SDS011;63577;39.766;2.720;2023-11-21T03:41:31;11.30;;;7.70;;
75016;SDS011;63577;39.766;2.720;2023-11-21T03:43:57;10.80;;;6.80;;
75016;SDS011;63577;39.766;2.720;2023-11-21T03:46:22;10.50;;;6.50;;
75016;SDS011;63577;39.766;2.720;2023-11-21T03:48:47;13.60;;;8.50;;
75016;SDS011;63577;39.766;2.720;2023-11-21T03:51:12;15.00;;;9.90;;
75016;SDS011;63577;39.766;2.720;2023-11-21T03:53:38;11.40;;;7.40;;
75016;SDS011;63577;39.766;2.720;2023-11-21T03:56:03;13.00;;;7.50;;
75016;SDS011;63577;39.766;2.720;2023-11-21T03:58:29;12.60;;;7.80;;
75016;SDS011;63577;39.766;2.720;2023-11-21T04:00:55;12.50;;;7.70;;
75016;SDS011;63577;39.766;2.720;2023-11-21T04:03:20;11.70;;;7.90;;
75016;SDS011;63577;39.766;2.720;2023-11-21T04:05:45;11.50;;;7.40;;
75016;SDS011;63577;39.766;2.720;2023-11-21T04:08:12;13.20;;;7.80;;
75016;SDS011;63577;39.766;2.720;2023-11-21T04:10:37;13.50;;;8.10;;
75016;SDS011;63577;39.766;2.720;2023-11-21T04:13:04;13.80;;;8.70;;
75016;SDS011;63577;39.766;2.720;2023-11-21T04:15:30;16.90;;;10.10;;
75016;SDS011;63577;39.766;2.720;2023-11-21T04:17:55;14.30;;;9.00;;
75016;SDS011;63577;39.766;2.720;2023-11-21T04:20:21;13.20;;;8.30;;
75016;SDS011;63577;39.766;2.720;2023-11-21T04:22:48;14.20;;;8.10;;
75016;SDS011;63577;39.766;2.720;2023-11-21T04:25:14;13.20;;;7.70;;
75016;SDS011;63577;39.766;2.720;2023-11-21T04:27:40;13.40;;;7.50;;
75016;SDS011;63577;39.766;2.720;2023-11-21T04:30:06;12.70;;;7.80;;
75016;SDS011;63577;39.766;2.720;2023-11-21T04:32:31;12.90;;;7.40;;
75016;SDS011;63577;39.766;2.720;2023-11-21T04:34:57;12.00;;;6.60;;
75016;SDS011;63577;39.766;2.720;2023-11-21T04:37:23;11.70;;;6.80;;
75016;SDS011;63577;39.766;2.720;2023-11-21T04:39:48;11.70;;;6.30;;
75016;SDS011;63577;39.766;2.720;2023-11-21T04:42:14;10.90;;;6.40;;
75016;SDS011;63577;39.766;2.720;2023-11-21T04:44:39;11.40;;;6.40;;
75016;SDS011;63577;39.766;2.720;2023-11-21T04:47:06;11.10;;;6.10;;
75016;SDS011;63577;39.766;2.720;2023-11-21T04:49:31;9.50;;;6.30;;
75016;SDS011;63577;39.766;2.720;2023-11-21T04:51:57;9.90;;;5.90;;
75016;SDS011;63577;39.766;2.720;2023-11-21T04:54:22;9.20;;;5.00;;
75016;SDS011;63577;39.766;2.720;2023-11-21T04:56:48;7.40;;;4.90;;
75016;SDS011;63577;39.766;2.720;2023-11-21T04:59:13;8.70;;;5.00;;
75016;SDS011;63577;39.766;2.720;2023-11-21T05:01:38;7.60;;;5.00;;
75016;SDS011;63577;39.766;2.720;2023-11-21T05:04:04;9.10;;;4.70;;
75016;SDS011;63577;39.766;2.720;2023-11-21T05:06:31;9.80;;;5.00;;
75016;SDS011;63577;39.766;2.720;2023-11-21T05:08:57;10.90;;;5.20;;
75016;SDS011;63577;39.766;2.720;2023-11-21T05:11:27;9.90;;;6.00;;
75016;SDS011;63577;39.766;2.720;2023-11-21T05:13:52;6.70;;;3.10;;
75016;SDS011;63577;39.766;2.720;2023-11-21T05:16:19;5.90;;;2.80;;
75016;SDS011;63577;39.766;2.720;2023-11-21T05:18:44;8.00;;;2.80;;
75016;SDS011;63577;39.766;2.720;2023-11-21T05:21:10;5.70;;;2.40;;
75016;SDS011;63577;39.766;2.720;2023-11-21T05:23:35;7.00;;;2.30;;
75016;SDS011;63577;39.766;2.720;2023-11-21T05:26:01;5.60;;;2.10;;
75016;SDS011;63577;39.766;2.720;2023-11-21T05:28:27;4.90;;;2.10;;
75016;SDS011;63577;39.766;2.720;2023-11-21T05:30:52;5.20;;;2.00;;
75016;SDS011;63577;39.766;2.720;2023-11-21T05:33:18;4.40;;;0.90;;
75016;SDS011;63577;39.766;2.720;2023-11-21T05:35:43;4.00;;;1.20;;
75016;SDS011;63577;39.766;2.720;2023-11-21T05:38:09;4.90;;;1.40;;
75016;SDS011;63577;39.766;2.720;2023-11-21T05:40:34;3.30;;;0.90;;
75016;SDS011;63577;39.766;2.720;2023-11-21T05:42:59;3.50;;;0.80;;
75016;SDS011;63577;39.766;2.720;2023-11-21T05:45:25;5.50;;;1.00;;
75016;SDS011;63577;39.766;2.720;2023-11-21T05:47:50;3.70;;;0.70;;
75016;SDS011;63577;39.766;2.720;2023-11-21T05:50:17;2.90;;;0.70;;
75016;SDS011;63577;39.766;2.720;2023-11-21T05:52:44;5.30;;;1.60;;
75016;SDS011;63577;39.766;2.720;2023-11-21T05:55:09;3.30;;;0.60;;
75016;SDS011;63577;39.766;2.720;2023-11-21T05:57:39;3.00;;;0.80;;
75016;SDS011;63577;39.766;2.720;2023-11-21T06:00:14;3.30;;;0.90;;
75016;SDS011;63577;39.766;2.720;2023-11-21T06:02:50;3.10;;;0.80;;
75016;SDS011;63577;39.766;2.720;2023-11-21T06:05:17;4.40;;;0.90;;
75016;SDS011;63577;39.766;2.720;2023-11-21T06:07:43;4.60;;;1.10;;
75016;SDS011;63577;39.766;2.720;2023-11-21T06:10:10;5.30;;;0.80;;
75016;SDS011;63577;39.766;2.720;2023-11-21T06:12:37;4.00;;;0.80;;
75016;SDS011;63577;39.766;2.720;2023-11-21T06:15:06;4.70;;;0.70;;
75016;SDS011;63577;39.766;2.720;2023-11-21T06:17:37;3.40;;;0.60;;
75016;SDS011;63577;39.766;2.720;2023-11-21T06:20:03;3.90;;;0.60;;
75016;SDS011;63577;39.766;2.720;2023-11-21T06:22:35;3.50;;;0.90;;
75016;SDS011;63577;39.766;2.720;2023-11-21T06:25:01;5.40;;;0.90;;
75016;SDS011;63577;39.766;2.720;2023-11-21T06:27:27;3.90;;;1.00;;
75016;SDS011;63577;39.766;2.720;2023-11-21T06:29:53;4.10;;;0.90;;
75016;SDS011;63577;39.766;2.720;2023-11-21T06:32:18;4.90;;;1.00;;
75016;SDS011;63577;39.766;2.720;2023-11-21T06:34:45;4.10;;;0.80;;
75016;SDS011;63577;39.766;2.720;2023-11-21T06:37:11;4.70;;;0.90;;
75016;SDS011;63577;39.766;2.720;2023-11-21T06:39:37;5.80;;;0.80;;
75016;SDS011;63577;39.766;2.720;2023-11-21T06:42:03;5.30;;;0.90;;
75016;SDS011;63577;39.766;2.720;2023-11-21T06:44:29;4.70;;;0.80;;
75016;SDS011;63577;39.766;2.720;2023-11-21T06:46:55;9.80;;;1.10;;
75016;SDS011;63577;39.766;2.720;2023-11-21T06:49:20;4.90;;;0.80;;
75016;SDS011;63577;39.766;2.720;2023-11-21T06:51:45;4.10;;;0.90;;
75016;SDS011;63577;39.766;2.720;2023-11-21T06:54:11;6.40;;;1.00;;
75016;SDS011;63577;39.766;2.720;2023-11-21T06:56:36;3.90;;;0.90;;
75016;SDS011;63577;39.766;2.720;2023-11-21T06:59:01;5.10;;;1.10;;
75016;SDS011;63577;39.766;2.720;2023-11-21T07:01:28;8.60;;;1.50;;
75016;SDS011;63577;39.766;2.720;2023-11-21T07:03:53;5.80;;;1.80;;
75016;SDS011;63577;39.766;2.720;2023-11-21T07:06:18;8.60;;;2.00;;
75016;SDS011;63577;39.766;2.720;2023-11-21T07:08:44;9.70;;;1.40;;
75016;SDS011;63577;39.766;2.720;2023-11-21T07:11:09;4.90;;;1.10;;
75016;SDS011;63577;39.766;2.720;2023-11-21T07:13:34;5.80;;;0.90;;
75016;SDS011;63577;39.766;2.720;2023-11-21T07:16:00;6.50;;;1.00;;
75016;SDS011;63577;39.766;2.720;2023-11-21T07:18:25;7.10;;;1.10;;
75016;SDS011;63577;39.766;2.720;2023-11-21T07:20:51;7.40;;;1.20;;
75016;SDS011;63577;39.766;2.720;2023-11-21T07:23:17;7.10;;;1.10;;
75016;SDS011;63577;39.766;2.720;2023-11-21T07:25:42;5.70;;;1.00;;
75016;SDS011;63577;39.766;2.720;2023-11-21T07:28:08;6.20;;;0.80;;
75016;SDS011;63577;39.766;2.720;2023-11-21T07:30:34;5.10;;;0.90;;
75016;SDS011;63577;39.766;2.720;2023-11-21T07:32:59;9.40;;;1.20;;
75016;SDS011;63577;39.766;2.720;2023-11-21T07:35:24;8.40;;;1.10;;
75016;SDS011;63577;39.766;2.720;2023-11-21T07:37:50;6.80;;;0.90;;
75016;SDS011;63577;39.766;2.720;2023-11-21T07:40:15;7.60;;;1.00;;
75016;SDS011;63577;39.766;2.720;2023-11-21T07:42:42;5.20;;;1.00;;
75016;SDS011;63577;39.766;2.720;2023-11-21T07:45:08;6.60;;;1.10;;
75016;SDS011;63577;39.766;2.720;2023-11-21T07:47:33;6.60;;;1.20;;
75016;SDS011;63577;39.766;2.720;2023-11-21T07:50:00;5.50;;;1.30;;
75016;SDS011;63577;39.766;2.720;2023-11-21T07:52:25;7.10;;;1.10;;
75016;SDS011;63577;39.766;2.720;2023-11-21T07:54:50;6.20;;;1.00;;
75016;SDS011;63577;39.766;2.720;2023-11-21T07:57:16;6.60;;;1.10;;
75016;SDS011;63577;39.766;2.720;2023-11-21T07:59:42;7.90;;;1.00;;
75016;SDS011;63577;39.766;2.720;2023-11-21T08:02:07;6.10;;;0.90;;
75016;SDS011;63577;39.766;2.720;2023-11-21T08:04:33;8.90;;;0.90;;
75016;SDS011;63577;39.766;2.720;2023-11-21T08:06:59;5.80;;;1.10;;
75016;SDS011;63577;39.766;2.720;2023-11-21T08:09:25;5.90;;;1.20;;
75016;SDS011;63577;39.766;2.720;2023-11-21T08:11:50;8.30;;;1.30;;
75016;SDS011;63577;39.766;2.720;2023-11-21T08:14:17;7.80;;;1.10;;
75016;SDS011;63577;39.766;2.720;2023-11-21T08:16:42;6.90;;;1.00;;
75016;SDS011;63577;39.766;2.720;2023-11-21T08:19:07;6.90;;;0.90;;
75016;SDS011;63577;39.766;2.720;2023-11-21T08:21:34;6.30;;;0.80;;
75016;SDS011;63577;39.766;2.720;2023-11-21T08:24:02;6.70;;;0.90;;
75016;SDS011;63577;39.766;2.720;2023-11-21T08:26:29;7.60;;;1.20;;
75016;SDS011;63577;39.766;2.720;2023-11-21T08:28:54;7.70;;;1.10;;
75016;SDS011;63577;39.766;2.720;2023-11-21T08:31:27;8.60;;;1.30;;
75016;SDS011;63577;39.766;2.720;2023-11-21T08:33:52;9.10;;;2.10;;
75016;SDS011;63577;39.766;2.720;2023-11-21T08:36:25;6.80;;;1.00;;
75016;SDS011;63577;39.766;2.720;2023-11-21T08:41:19;8.10;;;1.40;;
75016;SDS011;63577;39.766;2.720;2023-11-21T08:43:49;11.30;;;1.80;;
75016;SDS011;63577;39.766;2.720;2023-11-21T08:46:14;8.90;;;1.60;;
75016;SDS011;63577;39.766;2.720;2023-11-21T08:48:40;8.90;;;1.30;;
75016;SDS011;63577;39.766;2.720;2023-11-21T08:51:06;10.00;;;1.50;;
75016;SDS011;63577;39.766;2.720;2023-11-21T08:53:32;7.20;;;1.40;;
75016;SDS011;63577;39.766;2.720;2023-11-21T08:55:58;7.40;;;1.70;;
75016;SDS011;63577;39.766;2.720;2023-11-21T08:58:23;8.10;;;1.50;;
75016;SDS011;63577;39.766;2.720;2023-11-21T09:00:49;7.60;;;1.60;;
75016;SDS011;63577;39.766;2.720;2023-11-21T09:03:14;9.90;;;1.20;;
75016;SDS011;63577;39.766;2.720;2023-11-21T09:05:39;8.60;;;3.20;;
75016;SDS011;63577;39.766;2.720;2023-11-21T09:08:05;8.40;;;1.90;;
75016;SDS011;63577;39.766;2.720;2023-11-21T09:10:32;5.00;;;1.40;;
75016;SDS011;63577;39.766;2.720;2023-11-21T09:12:57;20.70;;;10.10;;
75016;SDS011;63577;39.766;2.720;2023-11-21T09:15:24;13.60;;;4.30;;
75016;SDS011;63577;39.766;2.720;2023-11-21T09:17:50;18.80;;;8.90;;
75016;SDS011;63577;39.766;2.720;2023-11-21T09:20:15;20.00;;;10.40;;
75016;SDS011;63577;39.766;2.720;2023-11-21T09:22:41;12.40;;;2.20;;
75016;SDS011;63577;39.766;2.720;2023-11-21T09:25:06;13.00;;;3.30;;
75016;SDS011;63577;39.766;2.720;2023-11-21T09:27:33;19.30;;;10.80;;
75016;SDS011;63577;39.766;2.720;2023-11-21T09:30:00;15.20;;;7.40;;
75016;SDS011;63577;39.766;2.720;2023-11-21T09:32:26;18.40;;;10.40;;
75016;SDS011;63577;39.766;2.720;2023-11-21T09:34:51;22.10;;;11.50;;
75016;SDS011;63577;39.766;2.720;2023-11-21T09:37:17;11.30;;;3.20;;
75016;SDS011;63577;39.766;2.720;2023-11-21T09:39:42;32.10;;;21.80;;
75016;SDS011;63577;39.766;2.720;2023-11-21T09:42:10;10.40;;;2.50;;
75016;SDS011;63577;39.766;2.720;2023-11-21T09:45:14;13.60;;;7.20;;
75016;SDS011;63577;39.766;2.720;2023-11-21T09:47:33;23.10;;;15.30;;
75016;SDS011;63577;39.766;2.720;2023-11-21T09:50:01;14.70;;;7.80;;
75016;SDS011;63577;39.766;2.720;2023-11-21T09:52:27;14.40;;;7.60;;
75016;SDS011;63577;39.766;2.720;2023-11-21T09:54:53;8.90;;;2.90;;
75016;SDS011;63577;39.766;2.720;2023-11-21T09:57:21;9.10;;;2.90;;
75016;SDS011;63577;39.766;2.720;2023-11-21T09:59:49;10.10;;;2.50;;
75016;SDS011;63577;39.766;2.720;2023-11-21T10:02:16;9.30;;;2.30;;
75016;SDS011;63577;39.766;2.720;2023-11-21T10:04:44;13.50;;;4.80;;
75016;SDS011;63577;39.766;2.720;2023-11-21T10:07:10;9.60;;;3.70;;
75016;SDS011;63577;39.766;2.720;2023-11-21T10:09:39;8.20;;;2.40;;
75016;SDS011;63577;39.766;2.720;2023-11-21T10:12:04;14.60;;;8.00;;
75016;SDS011;63577;39.766;2.720;2023-11-21T10:14:34;8.80;;;2.40;;
75016;SDS011;63577;39.766;2.720;2023-11-21T10:17:00;7.80;;;1.40;;
75016;SDS011;63577;39.766;2.720;2023-11-21T10:19:26;8.30;;;1.60;;
75016;SDS011;63577;39.766;2.720;2023-11-21T10:21:52;6.10;;;1.70;;
75016;SDS011;63577;39.766;2.720;2023-11-21T10:24:19;7.40;;;2.10;;
75016;SDS011;63577;39.766;2.720;2023-11-21T10:26:44;8.80;;;2.40;;
75016;SDS011;63577;39.766;2.720;2023-11-21T10:29:14;7.20;;;1.70;;
75016;SDS011;63577;39.766;2.720;2023-11-21T10:31:42;8.90;;;2.00;;
75016;SDS011;63577;39.766;2.720;2023-11-21T10:34:17;8.30;;;1.90;;
75016;SDS011;63577;39.766;2.720;2023-11-21T10:36:43;7.80;;;1.70;;
75016;SDS011;63577;39.766;2.720;2023-11-21T10:39:09;5.70;;;1.20;;
75016;SDS011;63577;39.766;2.720;2023-11-21T10:41:38;7.70;;;1.80;;
75016;SDS011;63577;39.766;2.720;2023-11-21T10:44:03;6.10;;;1.30;;
75016;SDS011;63577;39.766;2.720;2023-11-21T10:46:32;7.40;;;1.50;;
75016;SDS011;63577;39.766;2.720;2023-11-21T10:48:57;8.70;;;1.40;;
75016;SDS011;63577;39.766;2.720;2023-11-21T10:51:23;7.00;;;1.70;;
75016;SDS011;63577;39.766;2.720;2023-11-21T10:53:51;8.60;;;1.90;;
75016;SDS011;63577;39.766;2.720;2023-11-21T10:56:18;7.40;;;1.30;;
75016;SDS011;63577;39.766;2.720;2023-11-21T10:58:48;5.30;;;1.40;;
75016;SDS011;63577;39.766;2.720;2023-11-21T11:01:14;10.70;;;2.50;;
75016;SDS011;63577;39.766;2.720;2023-11-21T11:03:41;9.20;;;2.20;;
75016;SDS011;63577;39.766;2.720;2023-11-21T11:06:07;9.00;;;2.50;;
75016;SDS011;63577;39.766;2.720;2023-11-21T11:08:39;7.00;;;2.10;;
75016;SDS011;63577;39.766;2.720;2023-11-21T11:11:05;7.00;;;2.40;;
75016;SDS011;63577;39.766;2.720;2023-11-21T11:13:31;12.90;;;4.20;;
75016;SDS011;63577;39.766;2.720;2023-11-21T11:16:00;11.60;;;3.90;;
75016;SDS011;63577;39.766;2.720;2023-11-21T11:18:30;9.20;;;3.30;;
75016;SDS011;63577;39.766;2.720;2023-11-21T11:21:01;7.80;;;2.10;;
75016;SDS011;63577;39.766;2.720;2023-11-21T11:23:37;5.80;;;1.40;;
75016;SDS011;63577;39.766;2.720;2023-11-21T11:31:23;7.80;;;1.60;;
75016;SDS011;63577;39.766;2.720;2023-11-21T11:33:53;7.20;;;1.70;;
75016;SDS011;63577;39.766;2.720;2023-11-21T11:36:22;6.10;;;1.30;;
75016;SDS011;63577;39.766;2.720;2023-11-21T11:38:50;8.60;;;1.70;;
75016;SDS011;63577;39.766;2.720;2023-11-21T11:41:26;10.10;;;2.30;;
75016;SDS011;63577;39.766;2.720;2023-11-21T11:43:55;8.30;;;2.40;;
75016;SDS011;63577;39.766;2.720;2023-11-21T11:46:22;6.60;;;1.50;;
75016;SDS011;63577;39.766;2.720;2023-11-21T11:49:05;6.60;;;1.90;;
75016;SDS011;63577;39.766;2.720;2023-11-21T11:51:30;6.60;;;1.30;;
75016;SDS011;63577;39.766;2.720;2023-11-21T11:53:56;6.80;;;1.50;;
75016;SDS011;63577;39.766;2.720;2023-11-21T11:56:22;7.30;;;1.50;;
75016;SDS011;63577;39.766;2.720;2023-11-21T11:58:48;8.60;;;1.80;;
75016;SDS011;63577;39.766;2.720;2023-11-21T12:01:16;6.90;;;1.80;;
75016;SDS011;63577;39.766;2.720;2023-11-21T12:03:42;5.90;;;1.90;;
75016;SDS011;63577;39.766;2.720;2023-11-21T12:06:07;8.90;;;1.50;;
75016;SDS011;63577;39.766;2.720;2023-11-21T12:08:34;18.00;;;12.50;;
75016;SDS011;63577;39.766;2.720;2023-11-21T12:11:00;8.80;;;3.70;;
75016;SDS011;63577;39.766;2.720;2023-11-21T12:13:26;6.50;;;2.10;;
75016;SDS011;63577;39.766;2.720;2023-11-21T12:15:53;8.60;;;2.00;;
75016;SDS011;63577;39.766;2.720;2023-11-21T12:18:20;11.20;;;3.90;;
75016;SDS011;63577;39.766;2.720;2023-11-21T12:20:46;9.40;;;1.60;;
75016;SDS011;63577;39.766;2.720;2023-11-21T12:23:13;8.70;;;1.80;;
75016;SDS011;63577;39.766;2.720;2023-11-21T12:25:41;6.70;;;1.70;;
75016;SDS011;63577;39.766;2.720;2023-11-21T12:28:07;11.10;;;2.80;;
75016;SDS011;63577;39.766;2.720;2023-11-21T12:30:33;9.30;;;2.20;;
75016;SDS011;63577;39.766;2.720;2023-11-21T12:33:01;9.30;;;2.00;;
75016;SDS011;63577;39.766;2.720;2023-11-21T12:35:27;11.10;;;2.00;;
75016;SDS011;63577;39.766;2.720;2023-11-21T12:37:54;8.30;;;1.80;;
75016;SDS011;63577;39.766;2.720;2023-11-21T12:40:20;9.90;;;2.20;;
75016;SDS011;63577;39.766;2.720;2023-11-21T12:42:48;8.20;;;1.70;;
75016;SDS011;63577;39.766;2.720;2023-11-21T12:47:43;8.30;;;2.10;;
75016;SDS011;63577;39.766;2.720;2023-11-21T12:50:10;6.00;;;1.40;;
75016;SDS011;63577;39.766;2.720;2023-11-21T12:52:45;10.50;;;2.30;;
75016;SDS011;63577;39.766;2.720;2023-11-21T12:55:16;7.10;;;1.50;;
75016;SDS011;63577;39.766;2.720;2023-11-21T12:57:42;8.20;;;1.50;;
75016;SDS011;63577;39.766;2.720;2023-11-21T13:00:08;6.30;;;1.30;;
75016;SDS011;63577;39.766;2.720;2023-11-21T13:02:38;8.70;;;1.40;;
75016;SDS011;63577;39.766;2.720;2023-11-21T13:05:07;7.30;;;1.30;;
75016;SDS011;63577;39.766;2.720;2023-11-21T13:07:44;8.00;;;1.40;;
75016;SDS011;63577;39.766;2.720;2023-11-21T13:10:15;7.80;;;1.30;;
75016;SDS011;63577;39.766;2.720;2023-11-21T13:12:44;10.10;;;1.40;;
75016;SDS011;63577;39.766;2.720;2023-11-21T13:15:15;7.40;;;1.60;;
75016;SDS011;63577;39.766;2.720;2023-11-21T13:17:42;7.30;;;1.10;;
75016;SDS011;63577;39.766;2.720;2023-11-21T13:20:07;6.30;;;1.00;;
75016;SDS011;63577;39.766;2.720;2023-11-21T13:22:35;7.80;;;1.10;;
75016;SDS011;63577;39.766;2.720;2023-11-21T13:25:00;8.70;;;1.10;;
75016;SDS011;63577;39.766;2.720;2023-11-21T13:27:32;7.20;;;1.40;;
75016;SDS011;63577;39.766;2.720;2023-11-21T13:29:59;7.30;;;1.10;;
75016;SDS011;63577;39.766;2.720;2023-11-21T13:32:24;5.40;;;1.10;;
75016;SDS011;63577;39.766;2.720;2023-11-21T13:34:50;6.40;;;1.20;;
75016;SDS011;63577;39.766;2.720;2023-11-21T13:37:19;8.10;;;1.20;;
75016;SDS011;63577;39.766;2.720;2023-11-21T13:39:45;3.90;;;0.90;;
75016;SDS011;63577;39.766;2.720;2023-11-21T13:44:41;6.90;;;1.20;;
75016;SDS011;63577;39.766;2.720;2023-11-21T13:49:36;7.80;;;1.10;;
75016;SDS011;63577;39.766;2.720;2023-11-21T13:52:05;7.60;;;1.10;;
75016;SDS011;63577;39.766;2.720;2023-11-21T13:54:32;9.90;;;1.40;;
75016;SDS011;63577;39.766;2.720;2023-11-21T13:56:58;4.60;;;1.10;;
75016;SDS011;63577;39.766;2.720;2023-11-21T13:59:24;7.40;;;1.30;;
75016;SDS011;63577;39.766;2.720;2023-11-21T14:01:55;5.90;;;1.90;;
75016;SDS011;63577;39.766;2.720;2023-11-21T14:04:22;16.50;;;7.80;;
75016;SDS011;63577;39.766;2.720;2023-11-21T14:06:51;23.20;;;9.40;;
75016;SDS011;63577;39.766;2.720;2023-11-21T14:09:23;12.50;;;4.00;;
75016;SDS011;63577;39.766;2.720;2023-11-21T14:11:50;11.40;;;4.20;;
75016;SDS011;63577;39.766;2.720;2023-11-21T14:14:17;16.00;;;5.80;;
75016;SDS011;63577;39.766;2.720;2023-11-21T14:16:43;22.20;;;8.80;;
75016;SDS011;63577;39.766;2.720;2023-11-21T14:19:09;13.20;;;3.10;;
75016;SDS011;63577;39.766;2.720;2023-11-21T14:21:41;6.90;;;2.40;;
75016;SDS011;63577;39.766;2.720;2023-11-21T14:24:08;5.90;;;1.60;;
75016;SDS011;63577;39.766;2.720;2023-11-21T14:26:34;18.40;;;7.80;;
75016;SDS011;63577;39.766;2.720;2023-11-21T14:29:00;27.90;;;10.60;;
75016;SDS011;63577;39.766;2.720;2023-11-21T14:31:26;56.60;;;19.40;;
75016;SDS011;63577;39.766;2.720;2023-11-21T14:33:55;18.20;;;6.60;;
75016;SDS011;63577;39.766;2.720;2023-11-21T14:36:20;43.90;;;16.20;;
75016;SDS011;63577;39.766;2.720;2023-11-21T14:38:46;26.10;;;10.10;;
75016;SDS011;63577;39.766;2.720;2023-11-21T14:41:11;68.40;;;23.90;;
75016;SDS011;63577;39.766;2.720;2023-11-21T14:43:39;59.30;;;20.20;;
75016;SDS011;63577;39.766;2.720;2023-11-21T14:46:05;83.30;;;26.10;;
75016;SDS011;63577;39.766;2.720;2023-11-21T14:48:35;48.00;;;17.10;;
75016;SDS011;63577;39.766;2.720;2023-11-21T14:51:13;10.40;;;3.00;;
75016;SDS011;63577;39.766;2.720;2023-11-21T14:53:50;14.20;;;4.10;;
75016;SDS011;63577;39.766;2.720;2023-11-21T14:56:20;25.80;;;9.20;;